createdAt,value
2023-05-22T00:00:27.364Z,21.02
2023-05-22T00:01:27.415Z,21.00
2023-05-22T00:02:27.539Z,21.02
2023-05-22T00:03:27.520Z,21.03
2023-05-22T00:04:27.564Z,21.03
2023-05-22T00:05:27.645Z,20.98
2023-05-22T00:06:27.700Z,20.97
2023-05-22T00:07:27.625Z,20.98
2023-05-22T00:08:29.555Z,20.89
2023-05-22T00:09:27.738Z,20.91
2023-05-22T00:10:27.774Z,20.89
2023-05-22T00:11:27.817Z,20.80
2023-05-22T00:12:27.873Z,20.75
2023-05-22T00:13:27.867Z,20.78
2023-05-22T00:14:27.926Z,20.78
2023-05-22T00:15:27.945Z,20.80
2023-05-22T00:16:27.977Z,20.82
2023-05-22T00:17:28.031Z,20.80
2023-05-22T00:18:28.052Z,20.80
2023-05-22T00:19:28.080Z,20.80
2023-05-22T00:20:28.031Z,20.81
2023-05-22T00:21:28.055Z,20.81
2023-05-22T00:22:28.074Z,20.66
2023-05-22T00:23:28.066Z,20.60
2023-05-22T00:24:28.114Z,20.54
2023-05-22T00:25:28.070Z,20.45
2023-05-22T00:26:28.126Z,20.48
2023-05-22T00:27:28.175Z,20.52
2023-05-22T00:28:28.188Z,20.54
2023-05-22T00:29:28.252Z,20.54
2023-05-22T00:30:28.284Z,20.43
2023-05-22T00:31:28.215Z,20.33
2023-05-22T00:32:28.272Z,20.33
2023-05-22T00:33:28.294Z,20.39
2023-05-22T00:34:28.322Z,20.37
2023-05-22T00:35:28.354Z,20.31
2023-05-22T00:36:28.351Z,20.33
2023-05-22T00:37:28.370Z,20.35
2023-05-22T00:38:28.419Z,20.40
2023-05-22T00:39:28.465Z,20.43
2023-05-22T00:40:28.482Z,20.38
2023-05-22T00:41:28.544Z,20.37
2023-05-22T00:42:28.555Z,20.33
2023-05-22T00:43:28.753Z,20.30
2023-05-22T00:44:28.675Z,20.31
2023-05-22T00:45:28.697Z,20.36
2023-05-22T00:46:28.770Z,20.35
2023-05-22T00:47:28.889Z,20.34
2023-05-22T00:48:28.761Z,20.32
2023-05-22T00:49:28.797Z,20.29
2023-05-22T00:50:28.895Z,20.21
2023-05-22T00:51:28.871Z,20.22
2023-05-22T00:52:28.942Z,20.22
2023-05-22T00:53:28.969Z,20.21
2023-05-22T00:54:29.053Z,20.26
2023-05-22T00:55:29.060Z,20.27
2023-05-22T00:56:29.153Z,20.27
2023-05-22T00:57:29.165Z,20.24
2023-05-22T00:58:29.243Z,20.23
2023-05-22T00:59:29.287Z,20.27
2023-05-22T01:00:29.306Z,20.28
2023-05-22T01:01:29.355Z,20.33
2023-05-22T01:02:29.442Z,20.33
2023-05-22T01:03:29.482Z,20.31
2023-05-22T01:04:29.543Z,20.31
2023-05-22T01:05:29.582Z,20.29
2023-05-22T01:06:29.644Z,20.26
2023-05-22T01:07:29.758Z,20.28
2023-05-22T01:08:29.764Z,20.24
2023-05-22T01:09:29.868Z,20.19
2023-05-22T01:10:29.909Z,20.14
2023-05-22T01:11:29.921Z,20.07
2023-05-22T01:12:30.022Z,20.03
2023-05-22T01:13:30.060Z,20.02
2023-05-22T01:14:30.138Z,19.96
2023-05-22T01:15:30.169Z,19.95
2023-05-22T01:16:30.294Z,19.95
2023-05-22T01:17:30.304Z,19.95
2023-05-22T01:18:30.376Z,19.93
2023-05-22T01:19:30.425Z,19.87
2023-05-22T01:20:30.452Z,19.83
2023-05-22T01:21:30.481Z,19.86
2023-05-22T01:22:30.571Z,19.84
2023-05-22T01:23:30.573Z,19.89
2023-05-22T01:24:30.616Z,19.85
2023-05-22T01:25:30.633Z,19.85
2023-05-22T01:26:30.675Z,19.91
2023-05-22T01:27:30.725Z,19.92
2023-05-22T01:28:30.765Z,19.91
2023-05-22T01:29:30.790Z,19.83
2023-05-22T01:30:30.856Z,19.83
2023-05-22T01:31:30.888Z,19.80
2023-05-22T01:32:30.983Z,19.80
2023-05-22T01:33:31.195Z,19.83
2023-05-22T01:34:31.062Z,19.87
2023-05-22T01:35:31.114Z,19.85
2023-05-22T01:36:31.158Z,19.84
2023-05-22T01:37:31.133Z,19.86
2023-05-22T01:38:31.151Z,19.83
2023-05-22T01:39:31.195Z,19.80
2023-05-22T01:40:31.189Z,19.75
2023-05-22T01:41:31.250Z,19.73
2023-05-22T01:42:31.330Z,19.66
2023-05-22T01:43:31.329Z,19.66
2023-05-22T01:44:31.389Z,19.64
2023-05-22T01:45:31.487Z,19.68
2023-05-22T01:46:31.496Z,19.69
2023-05-22T01:47:31.905Z,19.69
2023-05-22T01:48:31.483Z,19.60
2023-05-22T01:49:31.484Z,19.54
2023-05-22T01:50:31.432Z,19.42
2023-05-22T01:51:31.438Z,19.31
2023-05-22T01:52:31.505Z,19.29
2023-05-22T01:53:31.439Z,19.29
2023-05-22T01:54:31.473Z,19.37
2023-05-22T01:55:31.478Z,19.41
2023-05-22T01:56:31.523Z,19.44
2023-05-22T01:57:31.522Z,19.45
2023-05-22T01:58:31.504Z,19.46
2023-05-22T01:59:31.540Z,19.45
2023-05-22T02:00:31.510Z,19.41
2023-05-22T02:01:31.525Z,19.42
2023-05-22T02:02:31.631Z,19.37
2023-05-22T02:03:31.634Z,19.33
2023-05-22T02:04:31.574Z,19.36
2023-05-22T02:05:31.585Z,19.36
2023-05-22T02:06:31.587Z,19.37
2023-05-22T02:07:31.608Z,19.41
2023-05-22T02:08:31.651Z,19.44
2023-05-22T02:09:31.640Z,19.39
2023-05-22T02:10:31.642Z,19.32
2023-05-22T02:11:31.733Z,19.32
2023-05-22T02:12:31.722Z,19.26
2023-05-22T02:13:31.714Z,19.24
2023-05-22T02:14:31.715Z,19.01
2023-05-22T02:15:31.794Z,19.01
2023-05-22T02:16:31.821Z,19.07
2023-05-22T02:17:31.906Z,19.00
2023-05-22T02:18:31.873Z,19.03
2023-05-22T02:19:31.979Z,19.08
2023-05-22T02:20:31.939Z,19.04
2023-05-22T02:21:32.017Z,19.09
2023-05-22T02:22:32.049Z,19.10
2023-05-22T02:23:32.081Z,19.09
2023-05-22T02:24:32.086Z,19.09
2023-05-22T02:25:32.174Z,19.07
2023-05-22T02:26:32.176Z,19.10
2023-05-22T02:27:32.240Z,19.13
2023-05-22T02:28:32.251Z,19.16
2023-05-22T02:29:32.475Z,19.13
2023-05-22T02:30:32.353Z,19.11
2023-05-22T02:31:32.467Z,19.15
2023-05-22T02:32:32.447Z,19.17
2023-05-22T02:33:32.469Z,19.18
2023-05-22T02:34:32.523Z,19.21
2023-05-22T02:35:32.633Z,19.20
2023-05-22T02:36:32.640Z,19.12
2023-05-22T02:37:32.646Z,18.95
2023-05-22T02:38:32.745Z,18.98
2023-05-22T02:39:32.767Z,19.05
2023-05-22T02:40:32.780Z,19.01
2023-05-22T02:41:32.815Z,19.02
2023-05-22T02:42:32.892Z,19.08
2023-05-22T02:43:32.893Z,19.06
2023-05-22T02:44:33.209Z,19.08
2023-05-22T02:45:33.028Z,19.10
2023-05-22T02:46:33.156Z,19.12
2023-05-22T02:47:33.181Z,19.14
2023-05-22T02:48:33.212Z,19.15
2023-05-22T02:49:33.211Z,19.19
2023-05-22T02:50:33.284Z,19.21
2023-05-22T02:51:33.339Z,19.22
2023-05-22T02:52:33.438Z,19.23
2023-05-22T02:53:33.451Z,19.12
2023-05-22T02:54:33.494Z,19.13
2023-05-22T02:55:33.575Z,19.07
2023-05-22T02:56:33.602Z,19.05
2023-05-22T02:57:33.682Z,19.01
2023-05-22T02:58:33.723Z,19.01
2023-05-22T02:59:33.753Z,19.02
2023-05-22T03:00:33.833Z,18.97
2023-05-22T03:01:33.899Z,18.99
2023-05-22T03:02:34.029Z,18.89
2023-05-22T03:03:34.091Z,18.92
2023-05-22T03:04:34.111Z,18.96
2023-05-22T03:05:34.139Z,18.95
2023-05-22T03:06:34.159Z,18.88
2023-05-22T03:07:34.197Z,18.87
2023-05-22T03:08:34.236Z,18.90
2023-05-22T03:09:34.266Z,18.93
2023-05-22T03:10:34.306Z,18.93
2023-05-22T03:11:34.290Z,18.94
2023-05-22T03:12:34.280Z,18.93
2023-05-22T03:13:34.297Z,18.93
2023-05-22T03:14:34.370Z,18.96
2023-05-22T03:15:34.249Z,18.96
2023-05-22T03:16:34.351Z,18.95
2023-05-22T03:17:34.322Z,18.94
2023-05-22T03:18:34.318Z,18.94
2023-05-22T03:19:34.366Z,18.93
2023-05-22T03:20:34.304Z,18.87
2023-05-22T03:21:34.342Z,18.88
2023-05-22T03:22:34.348Z,18.89
2023-05-22T03:23:34.403Z,18.90
2023-05-22T03:24:34.364Z,18.87
2023-05-22T03:25:34.411Z,18.85
2023-05-22T03:26:34.425Z,18.82
2023-05-22T03:27:34.413Z,18.79
2023-05-22T03:28:34.448Z,18.79
2023-05-22T03:29:34.428Z,18.79
2023-05-22T03:30:34.438Z,18.73
2023-05-22T03:31:34.460Z,18.73
2023-05-22T03:32:34.943Z,18.74
2023-05-22T03:33:34.515Z,18.70
2023-05-22T03:34:34.546Z,18.66
2023-05-22T03:35:34.569Z,18.62
2023-05-22T03:36:34.549Z,18.64
2023-05-22T03:37:34.920Z,18.65
2023-05-22T03:38:34.526Z,18.66
2023-05-22T03:39:34.572Z,18.67
2023-05-22T03:40:34.598Z,18.65
2023-05-22T03:41:34.618Z,18.62
2023-05-22T03:42:34.788Z,18.60
2023-05-22T03:43:34.696Z,18.46
2023-05-22T03:44:34.731Z,18.42
2023-05-22T03:45:34.740Z,18.48
2023-05-22T03:46:34.791Z,18.50
2023-05-22T03:47:34.766Z,18.47
2023-05-22T03:48:34.795Z,18.41
2023-05-22T03:49:34.772Z,18.40
2023-05-22T03:50:34.810Z,18.39
2023-05-22T03:51:34.784Z,18.38
2023-05-22T03:52:34.803Z,18.40
2023-05-22T03:53:34.798Z,18.41
2023-05-22T03:54:34.869Z,18.36
2023-05-22T03:55:34.891Z,18.33
2023-05-22T03:56:34.839Z,18.28
2023-05-22T03:57:34.864Z,18.27
2023-05-22T03:58:34.891Z,18.32
2023-05-22T03:59:34.868Z,18.31
2023-05-22T04:00:34.918Z,18.32
2023-05-22T04:01:34.962Z,18.33
2023-05-22T04:02:35.027Z,18.36
2023-05-22T04:03:35.003Z,18.36
2023-05-22T04:04:35.063Z,18.40
2023-05-22T04:05:35.236Z,18.35
2023-05-22T04:06:35.056Z,18.32
2023-05-22T04:07:35.109Z,18.37
2023-05-22T04:08:35.117Z,18.42
2023-05-22T04:09:35.137Z,18.45
2023-05-22T04:10:35.137Z,18.46
2023-05-22T04:11:35.206Z,18.46
2023-05-22T04:12:35.220Z,18.45
2023-05-22T04:13:35.217Z,18.44
2023-05-22T04:14:35.232Z,18.48
2023-05-22T04:15:35.255Z,18.46
2023-05-22T04:16:35.262Z,18.42
2023-05-22T04:17:35.325Z,18.40
2023-05-22T04:18:35.278Z,18.35
2023-05-22T04:19:35.293Z,18.32
2023-05-22T04:20:35.287Z,18.34
2023-05-22T04:21:35.329Z,18.38
2023-05-22T04:22:35.411Z,18.36
2023-05-22T04:23:35.388Z,18.39
2023-05-22T04:24:35.410Z,18.42
2023-05-22T04:25:35.426Z,18.41
2023-05-22T04:26:35.445Z,18.36
2023-05-22T04:27:35.532Z,18.37
2023-05-22T04:28:35.557Z,18.38
2023-05-22T04:29:35.517Z,18.34
2023-05-22T04:30:35.537Z,18.31
2023-05-22T04:31:35.640Z,18.31
2023-05-22T04:32:35.642Z,18.30
2023-05-22T04:33:35.596Z,18.28
2023-05-22T04:34:35.605Z,18.28
2023-05-22T04:35:35.624Z,18.33
2023-05-22T04:36:35.675Z,18.35
2023-05-22T04:37:35.682Z,18.31
2023-05-22T04:38:35.691Z,18.28
2023-05-22T04:39:35.756Z,18.27
2023-05-22T04:40:35.728Z,18.27
2023-05-22T04:41:35.845Z,18.28
2023-05-22T04:42:35.852Z,18.28
2023-05-22T04:43:35.868Z,18.29
2023-05-22T04:44:48.235Z,18.16
2023-05-22T04:45:47.420Z,18.00
2023-05-22T04:46:47.492Z,17.98
2023-05-22T04:47:48.082Z,18.07
2023-05-22T04:48:47.605Z,18.09
2023-05-22T04:50:56.902Z,18.16
2023-05-22T04:54:35.901Z,18.08
2023-05-22T04:56:55.675Z,18.07
2023-05-22T04:57:55.030Z,18.13
2023-05-22T04:58:54.985Z,18.18
2023-05-22T05:01:14.535Z,18.18
2023-05-22T05:02:14.526Z,18.20
2023-05-22T05:03:14.541Z,18.26
2023-05-22T05:04:14.469Z,18.31
2023-05-22T05:05:14.473Z,18.35
2023-05-22T05:06:14.430Z,18.36
2023-05-22T05:07:14.450Z,18.37
2023-05-22T05:08:14.435Z,18.36
2023-05-22T05:09:14.429Z,18.31
2023-05-22T05:10:14.405Z,18.30
2023-05-22T05:11:14.413Z,18.33
2023-05-22T05:12:14.406Z,18.27
2023-05-22T05:13:14.388Z,18.22
2023-05-22T05:14:14.375Z,18.26
2023-05-22T05:15:14.382Z,18.23
2023-05-22T05:16:14.404Z,18.22
2023-05-22T05:17:14.504Z,18.20
2023-05-22T05:18:14.407Z,18.27
2023-05-22T05:19:14.395Z,18.30
2023-05-22T05:20:14.396Z,18.34
2023-05-22T05:21:14.377Z,18.39
2023-05-22T05:22:14.377Z,18.39
2023-05-22T05:23:14.327Z,18.39
2023-05-22T05:24:14.335Z,18.41
2023-05-22T05:25:14.338Z,18.32
2023-05-22T05:26:14.310Z,18.32
2023-05-22T05:27:14.309Z,18.36
2023-05-22T05:28:14.305Z,18.38
2023-05-22T05:29:14.273Z,18.42
2023-05-22T05:30:14.267Z,18.45
2023-05-22T05:31:14.275Z,18.46
2023-05-22T05:32:14.323Z,18.47
2023-05-22T05:33:14.342Z,18.52
2023-05-22T05:34:14.225Z,18.52
2023-05-22T05:35:14.269Z,18.51
2023-05-22T05:36:14.257Z,18.62
2023-05-22T05:37:14.222Z,18.70
2023-05-22T05:38:14.232Z,18.84
2023-05-22T05:39:14.199Z,18.99
2023-05-22T05:40:14.231Z,19.03
2023-05-22T05:41:14.199Z,19.15
2023-05-22T05:42:14.204Z,19.29
2023-05-22T05:43:14.238Z,19.38
2023-05-22T05:44:14.507Z,19.48
2023-05-22T05:45:14.658Z,19.55
2023-05-22T05:46:14.278Z,19.50
2023-05-22T05:47:14.290Z,19.56
2023-05-22T05:48:14.194Z,19.57
2023-05-22T05:49:14.152Z,19.56
2023-05-22T05:50:14.121Z,19.57
2023-05-22T05:51:14.167Z,19.50
2023-05-22T05:52:14.102Z,19.36
2023-05-22T05:53:14.108Z,19.32
2023-05-22T05:54:14.118Z,19.24
2023-05-22T05:55:14.101Z,19.22
2023-05-22T05:56:14.096Z,19.23
2023-05-22T05:57:14.113Z,19.20
2023-05-22T05:58:14.073Z,19.20
2023-05-22T05:59:14.074Z,19.21
2023-05-22T06:00:14.069Z,19.13
2023-05-22T06:01:14.072Z,19.13
2023-05-22T06:02:14.068Z,19.07
2023-05-22T06:03:14.143Z,19.07
2023-05-22T06:04:14.123Z,19.11
2023-05-22T06:05:14.212Z,19.05
2023-05-22T06:06:14.233Z,19.10
2023-05-22T06:07:14.259Z,19.14
2023-05-22T06:08:14.324Z,19.15
2023-05-22T06:09:14.345Z,19.16
2023-05-22T06:10:14.399Z,19.16
2023-05-22T06:11:14.572Z,19.15
2023-05-22T06:12:14.478Z,19.18
2023-05-22T06:13:14.559Z,19.18
2023-05-22T06:14:14.591Z,19.19
2023-05-22T06:15:14.635Z,19.14
2023-05-22T06:16:14.710Z,19.18
2023-05-22T06:17:14.764Z,19.21
2023-05-22T06:18:14.755Z,19.21
2023-05-22T06:19:14.883Z,19.23
2023-05-22T06:20:14.840Z,19.26
2023-05-22T06:21:14.876Z,19.29
2023-05-22T06:22:14.998Z,19.30
2023-05-22T06:23:14.966Z,19.30
2023-05-22T06:24:15.021Z,19.35
2023-05-22T06:25:15.060Z,19.37
2023-05-22T06:26:15.082Z,19.40
2023-05-22T06:27:15.138Z,19.40
2023-05-22T06:28:15.188Z,19.42
2023-05-22T06:29:15.184Z,19.46
2023-05-22T06:30:22.367Z,19.47
2023-05-22T06:31:16.211Z,19.48
2023-05-22T06:32:15.244Z,19.48
2023-05-22T06:33:15.276Z,19.49
2023-05-22T06:34:15.256Z,19.45
2023-05-22T06:35:15.145Z,19.45
2023-05-22T06:36:15.157Z,19.47
2023-05-22T06:37:15.140Z,19.43
2023-05-22T06:38:15.151Z,19.38
2023-05-22T06:39:15.130Z,19.36
2023-05-22T06:40:15.180Z,19.44
2023-05-22T06:41:15.144Z,19.51
2023-05-22T06:42:15.102Z,19.53
2023-05-22T06:43:15.203Z,19.43
2023-05-22T06:44:15.106Z,19.40
2023-05-22T06:45:15.096Z,19.41
2023-05-22T06:46:15.131Z,19.47
2023-05-22T06:47:15.078Z,19.54
2023-05-22T06:48:15.065Z,19.58
2023-05-22T06:49:15.109Z,19.61
2023-05-22T06:50:15.080Z,19.62
2023-05-22T06:51:15.140Z,19.66
2023-05-22T06:52:15.115Z,19.69
2023-05-22T06:53:15.120Z,19.68
2023-05-22T06:54:15.156Z,19.62
2023-05-22T06:55:15.401Z,19.60
2023-05-22T06:56:15.287Z,19.62
2023-05-22T06:57:15.276Z,19.68
2023-05-22T06:58:15.306Z,19.76
2023-05-22T06:59:15.314Z,19.73
2023-05-22T07:00:15.384Z,19.79
2023-05-22T07:01:15.467Z,19.78
2023-05-22T07:02:15.509Z,19.73
2023-05-22T07:03:15.580Z,19.81
2023-05-22T07:04:15.599Z,19.88
2023-05-22T07:05:15.673Z,19.98
2023-05-22T07:06:15.910Z,20.05
2023-05-22T07:07:15.780Z,20.07
2023-05-22T07:08:16.220Z,20.09
2023-05-22T07:09:16.065Z,20.02
2023-05-22T07:10:15.899Z,20.02
2023-05-22T07:11:15.968Z,20.12
2023-05-22T07:12:15.993Z,20.14
2023-05-22T07:13:16.017Z,20.15
2023-05-22T07:14:16.008Z,20.18
2023-05-22T07:15:16.046Z,20.26
2023-05-22T07:16:16.120Z,20.32
2023-05-22T07:17:16.116Z,20.37
2023-05-22T07:18:16.108Z,20.36
2023-05-22T07:19:16.120Z,20.27
2023-05-22T07:20:16.167Z,20.15
2023-05-22T07:21:16.102Z,20.10
2023-05-22T07:22:16.132Z,20.20
2023-05-22T07:23:16.148Z,20.24
2023-05-22T07:24:16.139Z,20.31
2023-05-22T07:25:16.133Z,20.39
2023-05-22T07:26:16.157Z,20.45
2023-05-22T07:27:16.220Z,20.50
2023-05-22T07:28:16.760Z,20.59
2023-05-22T07:29:16.391Z,20.66
2023-05-22T07:30:16.539Z,20.76
2023-05-22T07:31:16.472Z,20.81
2023-05-22T07:32:16.499Z,20.89
2023-05-22T07:33:16.560Z,20.88
2023-05-22T07:34:16.551Z,20.79
2023-05-22T07:35:16.624Z,20.84
2023-05-22T07:36:16.671Z,20.87
2023-05-22T07:37:16.741Z,20.92
2023-05-22T07:38:16.770Z,20.94
2023-05-22T07:39:16.776Z,21.03
2023-05-22T07:40:16.882Z,21.08
2023-05-22T07:41:16.852Z,21.11
2023-05-22T07:42:16.875Z,21.12
2023-05-22T07:43:16.889Z,21.19
2023-05-22T07:44:16.856Z,21.22
2023-05-22T07:45:16.902Z,21.21
2023-05-22T07:46:16.923Z,21.25
2023-05-22T07:47:16.917Z,21.17
2023-05-22T07:48:17.004Z,21.16
2023-05-22T07:49:16.854Z,21.22
2023-05-22T07:50:16.892Z,21.20
2023-05-22T07:51:16.874Z,21.20
2023-05-22T07:52:16.864Z,21.20
2023-05-22T07:53:16.872Z,21.23
2023-05-22T07:54:16.895Z,21.34
2023-05-22T07:55:16.981Z,21.44
2023-05-22T07:56:17.000Z,21.52
2023-05-22T07:57:17.150Z,21.59
2023-05-22T07:58:17.218Z,21.67
2023-05-22T07:59:17.155Z,21.73
2023-05-22T08:00:17.221Z,21.77
2023-05-22T08:01:17.258Z,21.84
2023-05-22T08:02:17.363Z,21.78
2023-05-22T08:03:17.750Z,21.78
2023-05-22T08:04:17.558Z,21.83
2023-05-22T08:05:17.525Z,21.90
2023-05-22T08:06:17.508Z,21.92
2023-05-22T08:07:17.503Z,21.85
2023-05-22T08:08:17.767Z,21.90
2023-05-22T08:09:17.607Z,21.95
2023-05-22T08:10:17.635Z,21.91
2023-05-22T08:11:17.638Z,21.87
2023-05-22T08:12:17.650Z,21.96
2023-05-22T08:13:17.680Z,22.04
2023-05-22T08:14:17.728Z,22.02
2023-05-22T08:15:17.703Z,21.92
2023-05-22T08:16:17.725Z,21.85
2023-05-22T08:17:17.800Z,21.79
2023-05-22T08:18:17.762Z,21.79
2023-05-22T08:19:17.892Z,21.90
2023-05-22T08:20:17.858Z,22.02
2023-05-22T08:21:17.789Z,22.08
2023-05-22T08:22:17.863Z,22.17
2023-05-22T08:23:17.779Z,22.25
2023-05-22T08:24:17.808Z,22.35
2023-05-22T08:25:17.860Z,22.41
2023-05-22T08:26:17.920Z,22.43
2023-05-22T08:27:18.018Z,22.50
2023-05-22T08:28:18.007Z,22.53
2023-05-22T08:29:18.229Z,22.42
2023-05-22T08:30:18.119Z,22.39
2023-05-22T08:31:18.186Z,22.44
2023-05-22T08:32:18.189Z,22.49
2023-05-22T08:33:18.276Z,22.42
2023-05-22T08:34:18.309Z,22.37
2023-05-22T08:35:18.417Z,22.36
2023-05-22T08:36:18.441Z,22.43
2023-05-22T08:37:18.607Z,22.54
2023-05-22T08:38:18.605Z,22.63
2023-05-22T08:39:18.576Z,22.62
2023-05-22T08:40:18.615Z,22.66
2023-05-22T08:41:18.703Z,22.68
2023-05-22T08:42:18.791Z,22.72
2023-05-22T08:43:18.809Z,22.81
2023-05-22T08:44:18.801Z,22.88
2023-05-22T08:45:18.884Z,22.96
2023-05-22T08:46:18.837Z,23.02
2023-05-22T08:47:18.870Z,23.08
2023-05-22T08:48:18.858Z,23.15
2023-05-22T08:49:19.181Z,23.20
2023-05-22T08:50:18.872Z,23.23
2023-05-22T08:51:18.983Z,23.24
2023-05-22T08:52:18.946Z,23.31
2023-05-22T08:53:19.010Z,23.36
2023-05-22T08:54:18.913Z,23.41
2023-05-22T08:55:19.021Z,23.42
2023-05-22T08:56:18.985Z,23.43
2023-05-22T08:57:18.938Z,23.47
2023-05-22T08:58:18.998Z,23.52
2023-05-22T08:59:19.792Z,23.58
2023-05-22T09:00:19.024Z,23.61
2023-05-22T09:01:19.081Z,23.60
2023-05-22T09:02:19.101Z,23.61
2023-05-22T09:03:19.156Z,23.63
2023-05-22T09:04:19.090Z,23.54
2023-05-22T09:05:19.134Z,23.57
2023-05-22T09:06:19.108Z,23.61
2023-05-22T09:07:19.109Z,23.68
2023-05-22T09:08:20.829Z,23.69
2023-05-22T09:09:19.153Z,23.69
2023-05-22T09:10:19.182Z,23.72
2023-05-22T09:11:19.221Z,23.78
2023-05-22T09:12:19.253Z,23.84
2023-05-22T09:13:19.332Z,23.91
2023-05-22T09:14:19.341Z,23.99
2023-05-22T09:15:19.461Z,24.03
2023-05-22T09:16:19.539Z,24.06
2023-05-22T09:17:19.507Z,24.06
2023-05-22T09:18:19.632Z,24.02
2023-05-22T09:19:19.741Z,24.04
2023-05-22T09:20:19.633Z,24.06
2023-05-22T09:21:29.761Z,24.11
2023-05-22T09:22:22.390Z,24.13
2023-05-22T09:23:19.705Z,24.15
2023-05-22T09:24:19.750Z,24.18
2023-05-22T09:25:19.756Z,24.21
2023-05-22T09:26:19.732Z,24.24
2023-05-22T09:27:19.740Z,24.28
2023-05-22T09:28:19.761Z,24.32
2023-05-22T09:29:19.681Z,24.34
2023-05-22T09:30:19.669Z,24.34
2023-05-22T09:31:19.769Z,24.21
2023-05-22T09:32:19.684Z,24.19
2023-05-22T09:33:19.711Z,24.24
2023-05-22T09:34:19.729Z,24.27
2023-05-22T09:35:19.664Z,24.21
2023-05-22T09:36:19.823Z,24.19
2023-05-22T09:37:19.703Z,24.22
2023-05-22T09:38:19.717Z,24.28
2023-05-22T09:39:19.618Z,24.27
2023-05-22T09:40:19.685Z,24.32
2023-05-22T09:41:19.696Z,24.39
2023-05-22T09:42:19.581Z,24.45
2023-05-22T09:43:19.820Z,24.49
2023-05-22T09:44:19.587Z,24.53
2023-05-22T09:45:19.563Z,24.55
2023-05-22T09:46:19.585Z,24.57
2023-05-22T09:47:19.568Z,24.61
2023-05-22T09:48:19.785Z,24.62
2023-05-22T09:49:19.563Z,24.59
2023-05-22T09:50:19.591Z,24.61
2023-05-22T09:51:19.538Z,24.67
2023-05-22T09:52:19.506Z,24.72
2023-05-22T09:53:19.544Z,24.74
2023-05-22T09:54:19.558Z,24.63
2023-05-22T09:55:19.649Z,24.57
2023-05-22T09:56:30.796Z,24.57
2023-05-22T09:57:20.525Z,24.62
2023-05-22T09:58:19.501Z,24.68
2023-05-22T09:59:19.459Z,24.71
2023-05-22T10:00:19.463Z,24.73
2023-05-22T10:01:19.485Z,24.79
2023-05-22T10:02:19.467Z,24.90
2023-05-22T10:03:19.449Z,24.99
2023-05-22T10:04:19.501Z,25.10
2023-05-22T10:05:19.457Z,25.16
2023-05-22T10:06:19.415Z,25.16
2023-05-22T10:07:19.441Z,25.20
2023-05-22T10:08:19.556Z,25.26
2023-05-22T10:09:19.834Z,25.30
2023-05-22T10:10:19.527Z,25.33
2023-05-22T10:11:19.571Z,25.36
2023-05-22T10:12:19.482Z,25.33
2023-05-22T10:13:19.577Z,25.32
2023-05-22T10:14:19.568Z,25.27
2023-05-22T10:15:19.551Z,25.31
2023-05-22T10:16:19.582Z,25.33
2023-05-22T10:17:19.570Z,25.33
2023-05-22T10:18:19.725Z,25.31
2023-05-22T10:19:19.757Z,25.32
2023-05-22T10:20:19.614Z,25.33
2023-05-22T10:21:19.722Z,25.35
2023-05-22T10:22:19.641Z,25.34
2023-05-22T10:23:19.683Z,25.39
2023-05-22T10:24:19.647Z,25.43
2023-05-22T10:25:19.893Z,25.52
2023-05-22T10:26:19.722Z,25.56
2023-05-22T10:27:19.709Z,25.58
2023-05-22T10:28:19.703Z,25.61
2023-05-22T10:29:19.729Z,25.62
2023-05-22T10:30:19.681Z,25.65
2023-05-22T10:31:19.677Z,25.67
2023-05-22T10:32:19.699Z,25.68
2023-05-22T10:33:19.808Z,25.57
2023-05-22T10:34:19.699Z,25.54
2023-05-22T10:35:19.700Z,25.52
2023-05-22T10:36:19.771Z,25.50
2023-05-22T10:37:21.644Z,25.56
2023-05-22T10:38:19.744Z,25.63
2023-05-22T10:39:19.773Z,25.67
2023-05-22T10:40:19.833Z,25.72
2023-05-22T10:41:19.790Z,25.74
2023-05-22T10:42:19.892Z,25.75
2023-05-22T10:43:19.877Z,25.73
2023-05-22T10:44:20.013Z,25.78
2023-05-22T10:45:20.093Z,25.86
2023-05-22T10:46:20.105Z,25.89
2023-05-22T10:47:20.190Z,25.90
2023-05-22T10:48:20.196Z,25.94
2023-05-22T10:49:20.238Z,25.98
2023-05-22T10:50:20.248Z,26.03
2023-05-22T10:51:20.326Z,26.10
2023-05-22T10:52:20.345Z,26.14
2023-05-22T10:53:20.463Z,26.18
2023-05-22T10:54:20.395Z,26.22
2023-05-22T10:55:20.401Z,26.27
2023-05-22T10:56:21.296Z,26.25
2023-05-22T10:57:20.559Z,26.29
2023-05-22T10:58:20.572Z,26.34
2023-05-22T10:59:20.580Z,26.36
2023-05-22T11:00:20.597Z,26.38
2023-05-22T11:01:20.609Z,26.41
2023-05-22T11:02:20.707Z,26.44
2023-05-22T11:03:20.720Z,26.51
2023-05-22T11:04:20.664Z,26.53
2023-05-22T11:05:20.733Z,26.50
2023-05-22T11:06:20.832Z,26.44
2023-05-22T11:07:20.898Z,26.49
2023-05-22T11:08:20.953Z,26.54
2023-05-22T11:09:21.029Z,26.61
2023-05-22T11:10:21.008Z,26.65
2023-05-22T11:11:21.117Z,26.71
2023-05-22T11:12:21.120Z,26.76
2023-05-22T11:13:21.234Z,26.84
2023-05-22T11:14:21.260Z,26.89
2023-05-22T11:15:21.277Z,26.95
2023-05-22T11:16:21.390Z,27.01
2023-05-22T11:17:21.412Z,27.01
2023-05-22T11:18:21.461Z,26.97
2023-05-22T11:19:23.759Z,26.97
2023-05-22T11:20:21.500Z,26.99
2023-05-22T11:21:21.487Z,27.01
2023-05-22T11:22:21.560Z,27.01
2023-05-22T11:23:21.479Z,27.02
2023-05-22T11:24:21.475Z,27.04
2023-05-22T11:25:21.526Z,27.05
2023-05-22T11:26:21.500Z,27.09
2023-05-22T11:27:21.422Z,27.13
2023-05-22T11:28:21.463Z,27.16
2023-05-22T11:29:21.435Z,27.29
2023-05-22T11:30:21.416Z,27.45
2023-05-22T11:31:21.517Z,27.50
2023-05-22T11:32:21.403Z,27.45
2023-05-22T11:33:21.483Z,27.46
2023-05-22T11:34:21.402Z,27.48
2023-05-22T11:35:21.384Z,27.46
2023-05-22T11:36:21.365Z,27.47
2023-05-22T11:37:21.353Z,27.60
2023-05-22T11:38:21.369Z,27.68
2023-05-22T11:39:21.396Z,27.71
2023-05-22T11:40:21.390Z,27.68
2023-05-22T11:41:21.466Z,27.66
2023-05-22T11:42:21.356Z,27.69
2023-05-22T11:43:21.324Z,27.64
2023-05-22T11:44:21.314Z,27.56
2023-05-22T11:45:21.322Z,27.52
2023-05-22T11:46:21.347Z,27.54
2023-05-22T11:47:21.319Z,27.65
2023-05-22T11:48:21.347Z,27.71
2023-05-22T11:49:21.272Z,27.69
2023-05-22T11:51:21.293Z,27.68
2023-05-22T11:52:21.251Z,27.72
2023-05-22T11:53:21.371Z,27.75
2023-05-22T11:54:21.270Z,27.79
2023-05-22T11:55:21.220Z,27.85
2023-05-22T11:56:21.265Z,27.89
2023-05-22T11:57:21.321Z,27.84
2023-05-22T11:58:21.238Z,27.80
2023-05-22T11:59:21.210Z,27.81
2023-05-22T12:00:21.224Z,27.84
2023-05-22T12:01:21.228Z,27.84
2023-05-22T12:02:21.202Z,27.74
2023-05-22T12:03:21.274Z,27.74
2023-05-22T12:04:21.340Z,27.78
2023-05-22T12:05:21.208Z,27.80
2023-05-22T12:06:21.270Z,27.87
2023-05-22T12:07:21.195Z,27.92
2023-05-22T12:08:21.210Z,27.94
2023-05-22T12:09:21.167Z,28.00
2023-05-22T12:10:21.163Z,28.05
2023-05-22T12:11:21.212Z,28.11
2023-05-22T12:12:22.467Z,28.15
2023-05-22T12:13:21.253Z,28.16
2023-05-22T12:14:21.221Z,28.18
2023-05-22T12:15:21.115Z,28.20
2023-05-22T12:16:21.080Z,28.25
2023-05-22T12:17:21.106Z,28.34
2023-05-22T12:18:21.109Z,28.37
2023-05-22T12:19:21.174Z,28.42
2023-05-22T12:20:21.060Z,28.48
2023-05-22T12:21:21.308Z,28.52
2023-05-22T12:22:23.133Z,28.50
2023-05-22T12:23:21.047Z,28.54
2023-05-22T12:24:21.052Z,28.61
2023-05-22T12:25:21.049Z,28.65
2023-05-22T12:26:21.018Z,28.68
2023-05-22T12:27:21.086Z,28.70
2023-05-22T12:28:21.102Z,28.66
2023-05-22T12:29:21.228Z,28.61
2023-05-22T12:30:21.138Z,28.59
2023-05-22T12:31:21.153Z,28.62
2023-05-22T12:32:21.264Z,28.64
2023-05-22T12:33:21.338Z,28.68
2023-05-22T12:34:21.320Z,28.66
2023-05-22T12:35:21.303Z,28.62
2023-05-22T12:36:21.383Z,28.59
2023-05-22T12:37:21.366Z,28.58
2023-05-22T12:38:21.413Z,28.62
2023-05-22T12:39:21.426Z,28.71
2023-05-22T12:40:21.472Z,28.71
2023-05-22T12:41:21.431Z,28.77
2023-05-22T12:42:21.436Z,28.79
2023-05-22T12:43:21.454Z,28.77
2023-05-22T12:44:21.550Z,28.80
2023-05-22T12:45:21.601Z,28.84
2023-05-22T12:46:21.595Z,28.87
2023-05-22T12:47:21.611Z,28.85
2023-05-22T12:48:21.629Z,28.92
2023-05-22T12:49:21.654Z,28.94
2023-05-22T12:50:21.655Z,28.99
2023-05-22T12:51:21.661Z,28.98
2023-05-22T12:52:21.666Z,28.98
2023-05-22T12:53:21.681Z,29.04
2023-05-22T12:54:36.736Z,29.11
2023-05-22T12:58:11.145Z,28.74
2023-05-22T13:01:54.591Z,28.52
2023-05-22T13:02:39.276Z,28.59
2023-05-22T13:03:39.157Z,28.64
2023-05-22T13:04:39.134Z,28.65
2023-05-22T13:05:39.371Z,28.62